Bexar, Arkansas
Current Conditions -  °F | °C
As of 2:53 PM on Thursday 23 Oct 2014 (Local Time) from KBPK Reporting Station
Few Clouds Few Clouds  
Wind Chill: 16°   Ceiling: Unl
Heat Index: 16°   Visibility: 10mi
Dew Point:   Wind: 3mph
Humidity: 62%   Direction: 170°S
Pressure: 30.15"   Gusts: NA
Location:  36.29°N, 92°W
Report Text: KBPK 231953Z AUTO 17003KT 10SM FEW046 16/08 A3015 RMK AO2 SLP206 T01560083
Loading
Personal Weather Stations






























Interactive Weather Map
Tropical Storm Tracking
New forecast layout! Learn more

10-Day Weather Forecast

Advertisements
Track Severe Weather on mobile